Aviation Digital Data Service (ADDS)

Output produced by METARs form (2343 UTC 20 January 2019)
found at http://www.aviationweather.gov/metar/data/
 
METAR text: GMTT 202330Z 33004KT 9999 SCT040 SCT050 12/07 Q1020 NOSIG
Conditions at: GMTT (TANGIER/BOUKHALF, MA) observed 2330 UTC 20 January 2019
Temperature: 12.0°C (54°F)
Dewpoint: 7.0°C (45°F) [RH = 71%]
Pressure (altimeter): 30.12 inches Hg (1020.0 mb)
Winds: from the NNW (330 degrees) at 5 MPH (4 knots; 2.1 m/s)
Visibility: 6 or more miles (10+ km)
Ceiling: at least 12,000 feet AGL
Clouds: scattered clouds at 4000 feet AGL
scattered clouds at 5000 feet AGL
Weather: no significant weather observed at this time

METAR text: GMTT 202300Z 35004KT 9999 SCT040 SCT050 12/07 Q1020 NOSIG
Conditions at: GMTT (TANGIER/BOUKHALF, MA) observed 2300 UTC 20 January 2019
Temperature: 12.0°C (54°F)
Dewpoint: 7.0°C (45°F) [RH = 71%]
Pressure (altimeter): 30.12 inches Hg (1020.0 mb)
Winds: from the N (350 degrees) at 5 MPH (4 knots; 2.1 m/s)
Visibility: 6 or more miles (10+ km)
Ceiling: at least 12,000 feet AGL
Clouds: scattered clouds at 4000 feet AGL
scattered clouds at 5000 feet AGL
Weather: no significant weather observed at this time

METAR text: GMTT 202230Z 34006KT 9999 SCT040 SCT050 13/07 Q1020 NOSIG
Conditions at: GMTT (TANGIER/BOUKHALF, MA) observed 2230 UTC 20 January 2019
Temperature: 13.0°C (55°F)
Dewpoint: 7.0°C (45°F) [RH = 67%]
Pressure (altimeter): 30.12 inches Hg (1020.0 mb)
Winds: from the NNW (340 degrees) at 7 MPH (6 knots; 3.1 m/s)
Visibility: 6 or more miles (10+ km)
Ceiling: at least 12,000 feet AGL
Clouds: scattered clouds at 4000 feet AGL
scattered clouds at 5000 feet AGL
Weather: no significant weather observed at this time

METAR text: GMTT 202200Z 34008KT 9999 SCT040 SCT050 14/07 Q1019 NOSIG
Conditions at: GMTT (TANGIER/BOUKHALF, MA) observed 2200 UTC 20 January 2019
Temperature: 14.0°C (57°F)
Dewpoint: 7.0°C (45°F) [RH = 63%]
Pressure (altimeter): 30.09 inches Hg (1019.0 mb)
Winds: from the NNW (340 degrees) at 9 MPH (8 knots; 4.1 m/s)
Visibility: 6 or more miles (10+ km)
Ceiling: at least 12,000 feet AGL
Clouds: scattered clouds at 4000 feet AGL
scattered clouds at 5000 feet AGL
Weather: no significant weather observed at this time

METAR text: GMTT 202130Z 33005KT 9999 SCT033 SCT040 14/07 Q1019 NOSIG
Conditions at: GMTT (TANGIER/BOUKHALF, MA) observed 2130 UTC 20 January 2019
Temperature: 14.0°C (57°F)
Dewpoint: 7.0°C (45°F) [RH = 63%]
Pressure (altimeter): 30.09 inches Hg (1019.0 mb)
Winds: from the NNW (330 degrees) at 6 MPH (5 knots; 2.6 m/s)
Visibility: 6 or more miles (10+ km)
Ceiling: at least 12,000 feet AGL
Clouds: scattered clouds at 3300 feet AGL
scattered clouds at 4000 feet AGL
Weather: no significant weather observed at this time

METAR text: GMTT 202100Z 33006KT 9999 SCT033 BKN040 14/06 Q1019 NOSIG
Conditions at: GMTT (TANGIER/BOUKHALF, MA) observed 2100 UTC 20 January 2019
Temperature: 14.0°C (57°F)
Dewpoint: 6.0°C (43°F) [RH = 58%]
Pressure (altimeter): 30.09 inches Hg (1019.0 mb)
Winds: from the NNW (330 degrees) at 7 MPH (6 knots; 3.1 m/s)
Visibility: 6 or more miles (10+ km)
Ceiling: 4000 feet AGL
Clouds: scattered clouds at 3300 feet AGL
broken clouds at 4000 feet AGL
Weather: no significant weather observed at this time

METAR text: GMTT 202030Z 32007KT 9999 SCT033 BKN040 14/07 Q1019 NOSIG
Conditions at: GMTT (TANGIER/BOUKHALF, MA) observed 2030 UTC 20 January 2019
Temperature: 14.0°C (57°F)
Dewpoint: 7.0°C (45°F) [RH = 63%]
Pressure (altimeter): 30.09 inches Hg (1019.0 mb)
Winds: from the NW (320 degrees) at 8 MPH (7 knots; 3.6 m/s)
Visibility: 6 or more miles (10+ km)
Ceiling: 4000 feet AGL
Clouds: scattered clouds at 3300 feet AGL
broken clouds at 4000 feet AGL
Weather: no significant weather observed at this time

METAR text: GMTT 202000Z 32007KT 280V340 9999 SCT033 SCT040 14/07 Q1019 NOSIG
Conditions at: GMTT (TANGIER/BOUKHALF, MA) observed 2000 UTC 20 January 2019
Temperature: 14.0°C (57°F)
Dewpoint: 7.0°C (45°F) [RH = 63%]
Pressure (altimeter): 30.09 inches Hg (1019.0 mb)
Winds: from the NW (320 degrees) at 8 MPH (7 knots; 3.6 m/s)
Visibility: 6 or more miles (10+ km)
Ceiling: at least 12,000 feet AGL
Clouds: scattered clouds at 3300 feet AGL
scattered clouds at 4000 feet AGL
Weather: no significant weather observed at this time

METAR text: GMTT 201930Z 32008KT 9999 SCT033 SCT050 14/07 Q1019 NOSIG
Conditions at: GMTT (TANGIER/BOUKHALF, MA) observed 1930 UTC 20 January 2019
Temperature: 14.0°C (57°F)
Dewpoint: 7.0°C (45°F) [RH = 63%]
Pressure (altimeter): 30.09 inches Hg (1019.0 mb)
Winds: from the NW (320 degrees) at 9 MPH (8 knots; 4.1 m/s)
Visibility: 6 or more miles (10+ km)
Ceiling: at least 12,000 feet AGL
Clouds: scattered clouds at 3300 feet AGL
scattered clouds at 5000 feet AGL
Weather: no significant weather observed at this time

METAR text: GMTT 201900Z 32009KT 9999 FEW026 BKN033 14/07 Q1019 NOSIG
Conditions at: GMTT (TANGIER/BOUKHALF, MA) observed 1900 UTC 20 January 2019
Temperature: 14.0°C (57°F)
Dewpoint: 7.0°C (45°F) [RH = 63%]
Pressure (altimeter): 30.09 inches Hg (1019.0 mb)
Winds: from the NW (320 degrees) at 10 MPH (9 knots; 4.6 m/s)
Visibility: 6 or more miles (10+ km)
Ceiling: 3300 feet AGL
Clouds: few clouds at 2600 feet AGL
broken clouds at 3300 feet AGL
Weather: no significant weather observed at this time

METAR text: GMTT 201830Z 32010KT 290V350 9999 FEW026 BKN033 14/07 Q1018 NOSIG
Conditions at: GMTT (TANGIER/BOUKHALF, MA) observed 1830 UTC 20 January 2019
Temperature: 14.0°C (57°F)
Dewpoint: 7.0°C (45°F) [RH = 63%]
Pressure (altimeter): 30.06 inches Hg (1018.0 mb)
Winds: from the NW (320 degrees) at 12 MPH (10 knots; 5.1 m/s)
Visibility: 6 or more miles (10+ km)
Ceiling: 3300 feet AGL
Clouds: few clouds at 2600 feet AGL
broken clouds at 3300 feet AGL
Weather: no significant weather observed at this time

METAR text: GMTT 201800Z 33010KT 290V350 9999 SCT026 BKN033 14/07 Q1018 NOSIG
Conditions at: GMTT (TANGIER/BOUKHALF, MA) observed 1800 UTC 20 January 2019
Temperature: 14.0°C (57°F)
Dewpoint: 7.0°C (45°F) [RH = 63%]
Pressure (altimeter): 30.06 inches Hg (1018.0 mb)
Winds: from the NNW (330 degrees) at 12 MPH (10 knots; 5.1 m/s)
Visibility: 6 or more miles (10+ km)
Ceiling: 3300 feet AGL
Clouds: scattered clouds at 2600 feet AGL
broken clouds at 3300 feet AGL
Weather: no significant weather observed at this time

METAR text: GMTT 201730Z 33011KT 300V360 9999 SCT026 BKN033 14/07 Q1018 NOSIG
Conditions at: GMTT (TANGIER/BOUKHALF, MA) observed 1730 UTC 20 January 2019
Temperature: 14.0°C (57°F)
Dewpoint: 7.0°C (45°F) [RH = 63%]
Pressure (altimeter): 30.06 inches Hg (1018.0 mb)
Winds: from the NNW (330 degrees) at 13 MPH (11 knots; 5.7 m/s)
Visibility: 6 or more miles (10+ km)
Ceiling: 3300 feet AGL
Clouds: scattered clouds at 2600 feet AGL
broken clouds at 3300 feet AGL
Weather: no significant weather observed at this time

METAR text: GMTT 201700Z 32012KT 290V360 9999 SCT026 BKN033 14/07 Q1017 NOSIG
Conditions at: GMTT (TANGIER/BOUKHALF, MA) observed 1700 UTC 20 January 2019
Temperature: 14.0°C (57°F)
Dewpoint: 7.0°C (45°F) [RH = 63%]
Pressure (altimeter): 30.03 inches Hg (1017.0 mb)
Winds: from the NW (320 degrees) at 14 MPH (12 knots; 6.2 m/s)
Visibility: 6 or more miles (10+ km)
Ceiling: 3300 feet AGL
Clouds: scattered clouds at 2600 feet AGL
broken clouds at 3300 feet AGL
Weather: no significant weather observed at this time

METAR text: GMTT 201630Z 31013KT 290V350 9999 SCT026 BKN033 14/07 Q1017 NOSIG
Conditions at: GMTT (TANGIER/BOUKHALF, MA) observed 1630 UTC 20 January 2019
Temperature: 14.0°C (57°F)
Dewpoint: 7.0°C (45°F) [RH = 63%]
Pressure (altimeter): 30.03 inches Hg (1017.0 mb)
Winds: from the NW (310 degrees) at 15 MPH (13 knots; 6.7 m/s)
Visibility: 6 or more miles (10+ km)
Ceiling: 3300 feet AGL
Clouds: scattered clouds at 2600 feet AGL
broken clouds at 3300 feet AGL
Weather: no significant weather observed at this time

METAR text: GMTT 201600Z 31014KT 9999 SCT026 BKN033 15/08 Q1017 NOSIG
Conditions at: GMTT (TANGIER/BOUKHALF, MA) observed 1600 UTC 20 January 2019
Temperature: 15.0°C (59°F)
Dewpoint: 8.0°C (46°F) [RH = 63%]
Pressure (altimeter): 30.03 inches Hg (1017.0 mb)
Winds: from the NW (310 degrees) at 16 MPH (14 knots; 7.2 m/s)
Visibility: 6 or more miles (10+ km)
Ceiling: 3300 feet AGL
Clouds: scattered clouds at 2600 feet AGL
broken clouds at 3300 feet AGL
Weather: no significant weather observed at this time

METAR text: GMTT 201530Z 31015KT 9999 SCT026 BKN033 14/08 Q1017 NOSIG
Conditions at: GMTT (TANGIER/BOUKHALF, MA) observed 1530 UTC 20 January 2019
Temperature: 14.0°C (57°F)
Dewpoint: 8.0°C (46°F) [RH = 67%]
Pressure (altimeter): 30.03 inches Hg (1017.0 mb)
Winds: from the NW (310 degrees) at 17 MPH (15 knots; 7.7 m/s)
Visibility: 6 or more miles (10+ km)
Ceiling: 3300 feet AGL
Clouds: scattered clouds at 2600 feet AGL
broken clouds at 3300 feet AGL
Weather: no significant weather observed at this time

METAR text: GMTT 201500Z 31016KT 9999 SCT026 BKN033 15/08 Q1017 NOSIG
Conditions at: GMTT (TANGIER/BOUKHALF, MA) observed 1500 UTC 20 January 2019
Temperature: 15.0°C (59°F)
Dewpoint: 8.0°C (46°F) [RH = 63%]
Pressure (altimeter): 30.03 inches Hg (1017.0 mb)
Winds: from the NW (310 degrees) at 18 MPH (16 knots; 8.2 m/s)
Visibility: 6 or more miles (10+ km)
Ceiling: 3300 feet AGL
Clouds: scattered clouds at 2600 feet AGL
broken clouds at 3300 feet AGL
Weather: no significant weather observed at this time

METAR text: GMTT 201430Z 31017KT 9999 SCT026 BKN033 14/08 Q1017 NOSIG
Conditions at: GMTT (TANGIER/BOUKHALF, MA) observed 1430 UTC 20 January 2019
Temperature: 14.0°C (57°F)
Dewpoint: 8.0°C (46°F) [RH = 67%]
Pressure (altimeter): 30.03 inches Hg (1017.0 mb)
Winds: from the NW (310 degrees) at 20 MPH (17 knots; 8.7 m/s)
Visibility: 6 or more miles (10+ km)
Ceiling: 3300 feet AGL
Clouds: scattered clouds at 2600 feet AGL
broken clouds at 3300 feet AGL
Weather: no significant weather observed at this time

METAR text: GMTT 201400Z 30016KT 9999 SCT026 BKN033 15/08 Q1017 NOSIG
Conditions at: GMTT (TANGIER/BOUKHALF, MA) observed 1400 UTC 20 January 2019
Temperature: 15.0°C (59°F)
Dewpoint: 8.0°C (46°F) [RH = 63%]
Pressure (altimeter): 30.03 inches Hg (1017.0 mb)
Winds: from the WNW (300 degrees) at 18 MPH (16 knots; 8.2 m/s)
Visibility: 6 or more miles (10+ km)
Ceiling: 3300 feet AGL
Clouds: scattered clouds at 2600 feet AGL
broken clouds at 3300 feet AGL
Weather: no significant weather observed at this time

METAR text: GMTT 201330Z 31017KT 9999 SCT026 BKN033 14/08 Q1017 NOSIG
Conditions at: GMTT (TANGIER/BOUKHALF, MA) observed 1330 UTC 20 January 2019
Temperature: 14.0°C (57°F)
Dewpoint: 8.0°C (46°F) [RH = 67%]
Pressure (altimeter): 30.03 inches Hg (1017.0 mb)
Winds: from the NW (310 degrees) at 20 MPH (17 knots; 8.7 m/s)
Visibility: 6 or more miles (10+ km)
Ceiling: 3300 feet AGL
Clouds: scattered clouds at 2600 feet AGL
broken clouds at 3300 feet AGL
Weather: no significant weather observed at this time

METAR text: GMTT 201300Z 31018KT 9999 SCT026 BKN033 14/08 Q1017 NOSIG
Conditions at: GMTT (TANGIER/BOUKHALF, MA) observed 1300 UTC 20 January 2019
Temperature: 14.0°C (57°F)
Dewpoint: 8.0°C (46°F) [RH = 67%]
Pressure (altimeter): 30.03 inches Hg (1017.0 mb)
Winds: from the NW (310 degrees) at 21 MPH (18 knots; 9.3 m/s)
Visibility: 6 or more miles (10+ km)
Ceiling: 3300 feet AGL
Clouds: scattered clouds at 2600 feet AGL
broken clouds at 3300 feet AGL
Weather: no significant weather observed at this time

METAR text: GMTT 201230Z 31016KT 9999 BKN026 BKN033 14/08 Q1017 NOSIG
Conditions at: GMTT (TANGIER/BOUKHALF, MA) observed 1230 UTC 20 January 2019
Temperature: 14.0°C (57°F)
Dewpoint: 8.0°C (46°F) [RH = 67%]
Pressure (altimeter): 30.03 inches Hg (1017.0 mb)
Winds: from the NW (310 degrees) at 18 MPH (16 knots; 8.2 m/s)
Visibility: 6 or more miles (10+ km)
Ceiling: 2600 feet AGL
Clouds: broken clouds at 2600 feet AGL
broken clouds at 3300 feet AGL
Weather: no significant weather observed at this time

METAR text: GMTT 201200Z 31016KT 9999 BKN026 BKN033 14/08 Q1018 NOSIG
Conditions at: GMTT (TANGIER/BOUKHALF, MA) observed 1200 UTC 20 January 2019
Temperature: 14.0°C (57°F)
Dewpoint: 8.0°C (46°F) [RH = 67%]
Pressure (altimeter): 30.06 inches Hg (1018.0 mb)
Winds: from the NW (310 degrees) at 18 MPH (16 knots; 8.2 m/s)
Visibility: 6 or more miles (10+ km)
Ceiling: 2600 feet AGL
Clouds: broken clouds at 2600 feet AGL
broken clouds at 3300 feet AGL
Weather: no significant weather observed at this time

METAR text: GMTT 201130Z 31017KT 9999 BKN026 BKN033 14/08 Q1018 NOSIG
Conditions at: GMTT (TANGIER/BOUKHALF, MA) observed 1130 UTC 20 January 2019
Temperature: 14.0°C (57°F)
Dewpoint: 8.0°C (46°F) [RH = 67%]
Pressure (altimeter): 30.06 inches Hg (1018.0 mb)
Winds: from the NW (310 degrees) at 20 MPH (17 knots; 8.7 m/s)
Visibility: 6 or more miles (10+ km)
Ceiling: 2600 feet AGL
Clouds: broken clouds at 2600 feet AGL
broken clouds at 3300 feet AGL
Weather: no significant weather observed at this time

METAR text: GMTT 201100Z 32016KT 290V350 9999 SCT026 BKN033 14/07 Q1017 NOSIG
Conditions at: GMTT (TANGIER/BOUKHALF, MA) observed 1100 UTC 20 January 2019
Temperature: 14.0°C (57°F)
Dewpoint: 7.0°C (45°F) [RH = 63%]
Pressure (altimeter): 30.03 inches Hg (1017.0 mb)
Winds: from the NW (320 degrees) at 18 MPH (16 knots; 8.2 m/s)
Visibility: 6 or more miles (10+ km)
Ceiling: 3300 feet AGL
Clouds: scattered clouds at 2600 feet AGL
broken clouds at 3300 feet AGL
Weather: no significant weather observed at this time

METAR text: GMTT 201030Z 31017KT 8000 SCT030 BKN036 14/08 Q1017 NOSIG
Conditions at: GMTT (TANGIER/BOUKHALF, MA) observed 1030 UTC 20 January 2019
Temperature: 14.0°C (57°F)
Dewpoint: 8.0°C (46°F) [RH = 67%]
Pressure (altimeter): 30.03 inches Hg (1017.0 mb)
Winds: from the NW (310 degrees) at 20 MPH (17 knots; 8.7 m/s)
Visibility: 5 miles ( 8 km)
Ceiling: 3600 feet AGL
Clouds: scattered clouds at 3000 feet AGL
broken clouds at 3600 feet AGL
Weather: no significant weather observed at this time

METAR text: GMTT 201000Z 32017G28KT 290V350 8000 SCT030 BKN040 14/08 Q1017 NOSIG
Conditions at: GMTT (TANGIER/BOUKHALF, MA) observed 1000 UTC 20 January 2019
Temperature: 14.0°C (57°F)
Dewpoint: 8.0°C (46°F) [RH = 67%]
Pressure (altimeter): 30.03 inches Hg (1017.0 mb)
Winds: from the NW (320 degrees) at 20 MPH (17 knots; 8.7 m/s)
gusting to 32 MPH (28 knots; 14.4 m/s)
Visibility: 5 miles ( 8 km)
Ceiling: 4000 feet AGL
Clouds: scattered clouds at 3000 feet AGL
broken clouds at 4000 feet AGL
Weather: no significant weather observed at this time

METAR text: GMTT 200930Z 33016KT 8000 SCT026 BKN033 14/08 Q1016 NOSIG
Conditions at: GMTT (TANGIER/BOUKHALF, MA) observed 0930 UTC 20 January 2019
Temperature: 14.0°C (57°F)
Dewpoint: 8.0°C (46°F) [RH = 67%]
Pressure (altimeter): 30.00 inches Hg (1016.0 mb)
Winds: from the NNW (330 degrees) at 18 MPH (16 knots; 8.2 m/s)
Visibility: 5 miles ( 8 km)
Ceiling: 3300 feet AGL
Clouds: scattered clouds at 2600 feet AGL
broken clouds at 3300 feet AGL
Weather: no significant weather observed at this time

METAR text: GMTT 200900Z 32018G29KT 290V350 9999 SCT026 BKN033 14/09 Q1015 NOSIG
Conditions at: GMTT (TANGIER/BOUKHALF, MA) observed 0900 UTC 20 January 2019
Temperature: 14.0°C (57°F)
Dewpoint: 9.0°C (48°F) [RH = 72%]
Pressure (altimeter): 29.97 inches Hg (1015.0 mb)
Winds: from the NW (320 degrees) at 21 MPH (18 knots; 9.3 m/s)
gusting to 33 MPH (29 knots; 14.9 m/s)
Visibility: 6 or more miles (10+ km)
Ceiling: 3300 feet AGL
Clouds: scattered clouds at 2600 feet AGL
broken clouds at 3300 feet AGL
Weather: no significant weather observed at this time

METAR text: GMTT 200830Z 33017KT 9999 BKN018 BKN030 14/09 Q1015 RERA NOSIG
Conditions at: GMTT (TANGIER/BOUKHALF, MA) observed 0830 UTC 20 January 2019
Temperature: 14.0°C (57°F)
Dewpoint: 9.0°C (48°F) [RH = 72%]
Pressure (altimeter): 29.97 inches Hg (1015.0 mb)
Winds: from the NNW (330 degrees) at 20 MPH (17 knots; 8.7 m/s)
Visibility: 6 or more miles (10+ km)
Ceiling: 1800 feet AGL
Clouds: broken clouds at 1800 feet AGL
broken clouds at 3000 feet AGL
Weather: no significant weather observed at this time

METAR text: GMTT 200800Z 31017KT 8000 BKN015 BKN030 15/12 Q1015 RERA NOSIG
Conditions at: GMTT (TANGIER/BOUKHALF, MA) observed 0800 UTC 20 January 2019
Temperature: 15.0°C (59°F)
Dewpoint: 12.0°C (54°F) [RH = 82%]
Pressure (altimeter): 29.97 inches Hg (1015.0 mb)
Winds: from the NW (310 degrees) at 20 MPH (17 knots; 8.7 m/s)
Visibility: 5 miles ( 8 km)
Ceiling: 1500 feet AGL
Clouds: broken clouds at 1500 feet AGL
broken clouds at 3000 feet AGL
Weather: no significant weather observed at this time

METAR text: GMTT 200730Z 29020KT 6000 SCT013 BKN020 15/12 Q1014 NOSIG
Conditions at: GMTT (TANGIER/BOUKHALF, MA) observed 0730 UTC 20 January 2019
Temperature: 15.0°C (59°F)
Dewpoint: 12.0°C (54°F) [RH = 82%]
Pressure (altimeter): 29.94 inches Hg (1014.0 mb)
Winds: from the WNW (290 degrees) at 23 MPH (20 knots; 10.3 m/s)
Visibility: 4 miles ( 6 km)
Ceiling: 2000 feet AGL
Clouds: scattered clouds at 1300 feet AGL
broken clouds at 2000 feet AGL
Weather: no significant weather observed at this time

METAR text: GMTT 200700Z 29015KT 6000 SCT013 BKN020 15/12 Q1014 NOSIG
Conditions at: GMTT (TANGIER/BOUKHALF, MA) observed 0700 UTC 20 January 2019
Temperature: 15.0°C (59°F)
Dewpoint: 12.0°C (54°F) [RH = 82%]
Pressure (altimeter): 29.94 inches Hg (1014.0 mb)
Winds: from the WNW (290 degrees) at 17 MPH (15 knots; 7.7 m/s)
Visibility: 4 miles ( 6 km)
Ceiling: 2000 feet AGL
Clouds: scattered clouds at 1300 feet AGL
broken clouds at 2000 feet AGL
Weather: no significant weather observed at this time

METAR text: GMTT 200630Z 29015KT 6000 SCT013 BKN020 15/12 Q1014 NOSIG
Conditions at: GMTT (TANGIER/BOUKHALF, MA) observed 0630 UTC 20 January 2019
Temperature: 15.0°C (59°F)
Dewpoint: 12.0°C (54°F) [RH = 82%]
Pressure (altimeter): 29.94 inches Hg (1014.0 mb)
Winds: from the WNW (290 degrees) at 17 MPH (15 knots; 7.7 m/s)
Visibility: 4 miles ( 6 km)
Ceiling: 2000 feet AGL
Clouds: scattered clouds at 1300 feet AGL
broken clouds at 2000 feet AGL
Weather: no significant weather observed at this time

METAR text: GMTT 200600Z 30017KT 6000 SCT013 BKN020 15/12 Q1014 NOSIG
Conditions at: GMTT (TANGIER/BOUKHALF, MA) observed 0600 UTC 20 January 2019
Temperature: 15.0°C (59°F)
Dewpoint: 12.0°C (54°F) [RH = 82%]
Pressure (altimeter): 29.94 inches Hg (1014.0 mb)
Winds: from the WNW (300 degrees) at 20 MPH (17 knots; 8.7 m/s)
Visibility: 4 miles ( 6 km)
Ceiling: 2000 feet AGL
Clouds: scattered clouds at 1300 feet AGL
broken clouds at 2000 feet AGL
Weather: no significant weather observed at this time

METAR text: GMTT 200530Z 30018KT 6000 SCT013 BKN020 15/12 Q1014 NOSIG
Conditions at: GMTT (TANGIER/BOUKHALF, MA) observed 0530 UTC 20 January 2019
Temperature: 15.0°C (59°F)
Dewpoint: 12.0°C (54°F) [RH = 82%]
Pressure (altimeter): 29.94 inches Hg (1014.0 mb)
Winds: from the WNW (300 degrees) at 21 MPH (18 knots; 9.3 m/s)
Visibility: 4 miles ( 6 km)
Ceiling: 2000 feet AGL
Clouds: scattered clouds at 1300 feet AGL
broken clouds at 2000 feet AGL
Weather: no significant weather observed at this time

METAR text: GMTT 200500Z 28015KT 6000 SCT013 BKN020 15/13 Q1014 NOSIG
Conditions at: GMTT (TANGIER/BOUKHALF, MA) observed 0500 UTC 20 January 2019
Temperature: 15.0°C (59°F)
Dewpoint: 13.0°C (55°F) [RH = 88%]
Pressure (altimeter): 29.94 inches Hg (1014.0 mb)
Winds: from the W (280 degrees) at 17 MPH (15 knots; 7.7 m/s)
Visibility: 4 miles ( 6 km)
Ceiling: 2000 feet AGL
Clouds: scattered clouds at 1300 feet AGL
broken clouds at 2000 feet AGL
Weather: no significant weather observed at this time

METAR text: GMTT 200430Z 28017KT 5000 SCT013 BKN020 14/12 Q1014 NOSIG
Conditions at: GMTT (TANGIER/BOUKHALF, MA) observed 0430 UTC 20 January 2019
Temperature: 14.0°C (57°F)
Dewpoint: 12.0°C (54°F) [RH = 88%]
Pressure (altimeter): 29.94 inches Hg (1014.0 mb)
Winds: from the W (280 degrees) at 20 MPH (17 knots; 8.7 m/s)
Visibility: 3 miles ( 5 km)
Ceiling: 2000 feet AGL
Clouds: scattered clouds at 1300 feet AGL
broken clouds at 2000 feet AGL
Weather: no significant weather observed at this time

METAR text: GMTT 200400Z 28016KT 260V320 6000 SCT013 BKN020 15/12 Q1014 NOSIG
Conditions at: GMTT (TANGIER/BOUKHALF, MA) observed 0400 UTC 20 January 2019
Temperature: 15.0°C (59°F)
Dewpoint: 12.0°C (54°F) [RH = 82%]
Pressure (altimeter): 29.94 inches Hg (1014.0 mb)
Winds: from the W (280 degrees) at 18 MPH (16 knots; 8.2 m/s)
Visibility: 4 miles ( 6 km)
Ceiling: 2000 feet AGL
Clouds: scattered clouds at 1300 feet AGL
broken clouds at 2000 feet AGL
Weather: no significant weather observed at this time

METAR text: GMTT 200330Z 28015KT 5000 SCT013 BKN020 15/12 Q1015 NOSIG
Conditions at: GMTT (TANGIER/BOUKHALF, MA) observed 0330 UTC 20 January 2019
Temperature: 15.0°C (59°F)
Dewpoint: 12.0°C (54°F) [RH = 82%]
Pressure (altimeter): 29.97 inches Hg (1015.0 mb)
Winds: from the W (280 degrees) at 17 MPH (15 knots; 7.7 m/s)
Visibility: 3 miles ( 5 km)
Ceiling: 2000 feet AGL
Clouds: scattered clouds at 1300 feet AGL
broken clouds at 2000 feet AGL
Weather: no significant weather observed at this time

METAR text: GMTT 200300Z 29011KT 6000 SCT013 BKN020 14/12 Q1015 NOSIG
Conditions at: GMTT (TANGIER/BOUKHALF, MA) observed 0300 UTC 20 January 2019
Temperature: 14.0°C (57°F)
Dewpoint: 12.0°C (54°F) [RH = 88%]
Pressure (altimeter): 29.97 inches Hg (1015.0 mb)
Winds: from the WNW (290 degrees) at 13 MPH (11 knots; 5.7 m/s)
Visibility: 4 miles ( 6 km)
Ceiling: 2000 feet AGL
Clouds: scattered clouds at 1300 feet AGL
broken clouds at 2000 feet AGL
Weather: no significant weather observed at this time

METAR text: GMTT 200230Z 31012KT 5000 SCT010 BKN016 FEW020CB 14/12 Q1015 NOSIG
Conditions at: GMTT (TANGIER/BOUKHALF, MA) observed 0230 UTC 20 January 2019
Temperature: 14.0°C (57°F)
Dewpoint: 12.0°C (54°F) [RH = 88%]
Pressure (altimeter): 29.97 inches Hg (1015.0 mb)
Winds: from the NW (310 degrees) at 14 MPH (12 knots; 6.2 m/s)
Visibility: 3 miles ( 5 km)
Ceiling: 1600 feet AGL
Clouds: scattered clouds at 1000 feet AGL
broken clouds at 1600 feet AGL
few clouds at 2000 feet AGL
Weather: no significant weather observed at this time

METAR text: GMTT 200200Z 27013KT 6000 SCT010 BKN016 FEW020CB 14/13 Q1015 NOSIG
Conditions at: GMTT (TANGIER/BOUKHALF, MA) observed 0200 UTC 20 January 2019
Temperature: 14.0°C (57°F)
Dewpoint: 13.0°C (55°F) [RH = 94%]
Pressure (altimeter): 29.97 inches Hg (1015.0 mb)
Winds: from the W (270 degrees) at 15 MPH (13 knots; 6.7 m/s)
Visibility: 4 miles ( 6 km)
Ceiling: 1600 feet AGL
Clouds: scattered clouds at 1000 feet AGL
broken clouds at 1600 feet AGL
few clouds at 2000 feet AGL
Weather: no significant weather observed at this time

METAR text: GMTT 200130Z 28012KT 5000 SCT010 BKN016 FEW020CB 14/13 Q1015 NOSIG
Conditions at: GMTT (TANGIER/BOUKHALF, MA) observed 0130 UTC 20 January 2019
Temperature: 14.0°C (57°F)
Dewpoint: 13.0°C (55°F) [RH = 94%]
Pressure (altimeter): 29.97 inches Hg (1015.0 mb)
Winds: from the W (280 degrees) at 14 MPH (12 knots; 6.2 m/s)
Visibility: 3 miles ( 5 km)
Ceiling: 1600 feet AGL
Clouds: scattered clouds at 1000 feet AGL
broken clouds at 1600 feet AGL
few clouds at 2000 feet AGL
Weather: no significant weather observed at this time

METAR text: GMTT 200100Z 28019KT 3000 RA SCT010 BKN016 13/12 Q1015 NOSIG
Conditions at: GMTT (TANGIER/BOUKHALF, MA) observed 0100 UTC 20 January 2019
Temperature: 13.0°C (55°F)
Dewpoint: 12.0°C (54°F) [RH = 94%]
Pressure (altimeter): 29.97 inches Hg (1015.0 mb)
Winds: from the W (280 degrees) at 22 MPH (19 knots; 9.8 m/s)
Visibility: 1.86 miles (2.99 km)
Ceiling: 1600 feet AGL
Clouds: scattered clouds at 1000 feet AGL
broken clouds at 1600 feet AGL
Weather: RA  (moderate rain)

METAR text: GMTT 200030Z 25020KT 9999 SCT010 BKN016 15/13 Q1014 NOSIG
Conditions at: GMTT (TANGIER/BOUKHALF, MA) observed 0030 UTC 20 January 2019
Temperature: 15.0°C (59°F)
Dewpoint: 13.0°C (55°F) [RH = 88%]
Pressure (altimeter): 29.94 inches Hg (1014.0 mb)
Winds: from the WSW (250 degrees) at 23 MPH (20 knots; 10.3 m/s)
Visibility: 6 or more miles (10+ km)
Ceiling: 1600 feet AGL
Clouds: scattered clouds at 1000 feet AGL
broken clouds at 1600 feet AGL
Weather: no significant weather observed at this time

METAR text: GMTT 200000Z 25020KT 5000 -RA SCT010 BKN016 15/13 Q1015 NOSIG
Conditions at: GMTT (TANGIER/BOUKHALF, MA) observed 0000 UTC 20 January 2019
Temperature: 15.0°C (59°F)
Dewpoint: 13.0°C (55°F) [RH = 88%]
Pressure (altimeter): 29.97 inches Hg (1015.0 mb)
Winds: from the WSW (250 degrees) at 23 MPH (20 knots; 10.3 m/s)
Visibility: 3 miles ( 5 km)
Ceiling: 1600 feet AGL
Clouds: scattered clouds at 1000 feet AGL
broken clouds at 1600 feet AGL
Weather: -RA  (light rain)

METAR text: GMTT 192330Z 24018KT 6000 -RA SCT013 BKN020 15/13 Q1016 NOSIG
Conditions at: GMTT (TANGIER/BOUKHALF, MA) observed 2330 UTC 19 January 2019
Temperature: 15.0°C (59°F)
Dewpoint: 13.0°C (55°F) [RH = 88%]
Pressure (altimeter): 30.00 inches Hg (1016.0 mb)
Winds: from the WSW (240 degrees) at 21 MPH (18 knots; 9.3 m/s)
Visibility: 4 miles ( 6 km)
Ceiling: 2000 feet AGL
Clouds: scattered clouds at 1300 feet AGL
broken clouds at 2000 feet AGL
Weather: -RA  (light rain)

METAR text: GMTT 192300Z 25022G36KT 6000 SCT013 BKN020 15/12 Q1016 NOSIG
Conditions at: GMTT (TANGIER/BOUKHALF, MA) observed 2300 UTC 19 January 2019
Temperature: 15.0°C (59°F)
Dewpoint: 12.0°C (54°F) [RH = 82%]
Pressure (altimeter): 30.00 inches Hg (1016.0 mb)
Winds: from the WSW (250 degrees) at 25 MPH (22 knots; 11.3 m/s)
gusting to 41 MPH (36 knots; 18.5 m/s)
Visibility: 4 miles ( 6 km)
Ceiling: 2000 feet AGL
Clouds: scattered clouds at 1300 feet AGL
broken clouds at 2000 feet AGL
Weather: no significant weather observed at this time

METAR text: GMTT 192230Z 24016KT 6000 SCT010 BKN016 15/13 Q1016 NOSIG
Conditions at: GMTT (TANGIER/BOUKHALF, MA) observed 2230 UTC 19 January 2019
Temperature: 15.0°C (59°F)
Dewpoint: 13.0°C (55°F) [RH = 88%]
Pressure (altimeter): 30.00 inches Hg (1016.0 mb)
Winds: from the WSW (240 degrees) at 18 MPH (16 knots; 8.2 m/s)
Visibility: 4 miles ( 6 km)
Ceiling: 1600 feet AGL
Clouds: scattered clouds at 1000 feet AGL
broken clouds at 1600 feet AGL
Weather: no significant weather observed at this time

METAR text: GMTT 192200Z 25013KT 6000 SCT010 BKN016 14/12 Q1017 NOSIG
Conditions at: GMTT (TANGIER/BOUKHALF, MA) observed 2200 UTC 19 January 2019
Temperature: 14.0°C (57°F)
Dewpoint: 12.0°C (54°F) [RH = 88%]
Pressure (altimeter): 30.03 inches Hg (1017.0 mb)
Winds: from the WSW (250 degrees) at 15 MPH (13 knots; 6.7 m/s)
Visibility: 4 miles ( 6 km)
Ceiling: 1600 feet AGL
Clouds: scattered clouds at 1000 feet AGL
broken clouds at 1600 feet AGL
Weather: no significant weather observed at this time

METAR text: GMTT 192130Z 26017KT 5000 -RA SCT010 BKN016 14/12 Q1017 NOSIG
Conditions at: GMTT (TANGIER/BOUKHALF, MA) observed 2130 UTC 19 January 2019
Temperature: 14.0°C (57°F)
Dewpoint: 12.0°C (54°F) [RH = 88%]
Pressure (altimeter): 30.03 inches Hg (1017.0 mb)
Winds: from the W (260 degrees) at 20 MPH (17 knots; 8.7 m/s)
Visibility: 3 miles ( 5 km)
Ceiling: 1600 feet AGL
Clouds: scattered clouds at 1000 feet AGL
broken clouds at 1600 feet AGL
Weather: -RA  (light rain)

METAR text: GMTT 192100Z 27014KT 6000 -RA SCT013 BKN020 15/13 Q1017 NOSIG
Conditions at: GMTT (TANGIER/BOUKHALF, MA) observed 2100 UTC 19 January 2019
Temperature: 15.0°C (59°F)
Dewpoint: 13.0°C (55°F) [RH = 88%]
Pressure (altimeter): 30.03 inches Hg (1017.0 mb)
Winds: from the W (270 degrees) at 16 MPH (14 knots; 7.2 m/s)
Visibility: 4 miles ( 6 km)
Ceiling: 2000 feet AGL
Clouds: scattered clouds at 1300 feet AGL
broken clouds at 2000 feet AGL
Weather: -RA  (light rain)

METAR text: GMTT 192030Z 27014KT 6000 SCT013 BKN020 15/13 Q1017 NOSIG
Conditions at: GMTT (TANGIER/BOUKHALF, MA) observed 2030 UTC 19 January 2019
Temperature: 15.0°C (59°F)
Dewpoint: 13.0°C (55°F) [RH = 88%]
Pressure (altimeter): 30.03 inches Hg (1017.0 mb)
Winds: from the W (270 degrees) at 16 MPH (14 knots; 7.2 m/s)
Visibility: 4 miles ( 6 km)
Ceiling: 2000 feet AGL
Clouds: scattered clouds at 1300 feet AGL
broken clouds at 2000 feet AGL
Weather: no significant weather observed at this time

METAR text: GMTT 192000Z 24007KT 6000 SCT013 BKN020 14/12 Q1018 NOSIG
Conditions at: GMTT (TANGIER/BOUKHALF, MA) observed 2000 UTC 19 January 2019
Temperature: 14.0°C (57°F)
Dewpoint: 12.0°C (54°F) [RH = 88%]
Pressure (altimeter): 30.06 inches Hg (1018.0 mb)
Winds: from the WSW (240 degrees) at 8 MPH (7 knots; 3.6 m/s)
Visibility: 4 miles ( 6 km)
Ceiling: 2000 feet AGL
Clouds: scattered clouds at 1300 feet AGL
broken clouds at 2000 feet AGL
Weather: no significant weather observed at this time

METAR text: GMTT 191930Z 20010KT 8000 FEW013 SCT018 BKN023 13/12 Q1018 NOSIG
Conditions at: GMTT (TANGIER/BOUKHALF, MA) observed 1930 UTC 19 January 2019
Temperature: 13.0°C (55°F)
Dewpoint: 12.0°C (54°F) [RH = 94%]
Pressure (altimeter): 30.06 inches Hg (1018.0 mb)
Winds: from the SSW (200 degrees) at 12 MPH (10 knots; 5.1 m/s)
Visibility: 5 miles ( 8 km)
Ceiling: 2300 feet AGL
Clouds: few clouds at 1300 feet AGL
scattered clouds at 1800 feet AGL
broken clouds at 2300 feet AGL
Weather: no significant weather observed at this time

METAR text: GMTT 191900Z 20009KT 8000 FEW013 SCT018 BKN023 13/12 Q1018 NOSIG
Conditions at: GMTT (TANGIER/BOUKHALF, MA) observed 1900 UTC 19 January 2019
Temperature: 13.0°C (55°F)
Dewpoint: 12.0°C (54°F) [RH = 94%]
Pressure (altimeter): 30.06 inches Hg (1018.0 mb)
Winds: from the SSW (200 degrees) at 10 MPH (9 knots; 4.6 m/s)
Visibility: 5 miles ( 8 km)
Ceiling: 2300 feet AGL
Clouds: few clouds at 1300 feet AGL
scattered clouds at 1800 feet AGL
broken clouds at 2300 feet AGL
Weather: no significant weather observed at this time

METAR text: GMTT 191830Z 20010KT 8000 FEW015 SCT018 BKN023 13/12 Q1018 NOSIG
Conditions at: GMTT (TANGIER/BOUKHALF, MA) observed 1830 UTC 19 January 2019
Temperature: 13.0°C (55°F)
Dewpoint: 12.0°C (54°F) [RH = 94%]
Pressure (altimeter): 30.06 inches Hg (1018.0 mb)
Winds: from the SSW (200 degrees) at 12 MPH (10 knots; 5.1 m/s)
Visibility: 5 miles ( 8 km)
Ceiling: 2300 feet AGL
Clouds: few clouds at 1500 feet AGL
scattered clouds at 1800 feet AGL
broken clouds at 2300 feet AGL
Weather: no significant weather observed at this time

METAR text: GMTT 191800Z 20010KT 8000 SCT010 BKN016 BKN023 13/12 Q1018 NOSIG
Conditions at: GMTT (TANGIER/BOUKHALF, MA) observed 1800 UTC 19 January 2019
Temperature: 13.0°C (55°F)
Dewpoint: 12.0°C (54°F) [RH = 94%]
Pressure (altimeter): 30.06 inches Hg (1018.0 mb)
Winds: from the SSW (200 degrees) at 12 MPH (10 knots; 5.1 m/s)
Visibility: 5 miles ( 8 km)
Ceiling: 1600 feet AGL
Clouds: scattered clouds at 1000 feet AGL
broken clouds at 1600 feet AGL
broken clouds at 2300 feet AGL
Weather: no significant weather observed at this time

METAR text: GMTT 191730Z 21010KT 8000 SCT006 BKN013 BKN016 13/12 Q1018 RERA NOSIG
Conditions at: GMTT (TANGIER/BOUKHALF, MA) observed 1730 UTC 19 January 2019
Temperature: 13.0°C (55°F)
Dewpoint: 12.0°C (54°F) [RH = 94%]
Pressure (altimeter): 30.06 inches Hg (1018.0 mb)
Winds: from the SSW (210 degrees) at 12 MPH (10 knots; 5.1 m/s)
Visibility: 5 miles ( 8 km)
Ceiling: 1300 feet AGL
Clouds: scattered clouds at 600 feet AGL
broken clouds at 1300 feet AGL
broken clouds at 1600 feet AGL
Weather: no significant weather observed at this time

METAR text: GMTT 191700Z 21011KT 4000 -RA SCT005 BKN013 BKN018 14/12 Q1018 BECMG 8000 SCT010 BKN016 BKN026
Conditions at: GMTT (TANGIER/BOUKHALF, MA) observed 1700 UTC 19 January 2019
Temperature: 14.0°C (57°F)
Dewpoint: 12.0°C (54°F) [RH = 88%]
Pressure (altimeter): 30.06 inches Hg (1018.0 mb)
Winds: from the SSW (210 degrees) at 13 MPH (11 knots; 5.7 m/s)
Visibility: 2.49 miles (4.01 km)
Ceiling: 1300 feet AGL
Clouds: scattered clouds at 500 feet AGL
broken clouds at 1300 feet AGL
broken clouds at 1800 feet AGL
Weather: -RA  (light rain)

METAR text: GMTT 191630Z 21011KT 8000 SCT016 BKN020 BKN026 14/11 Q1018 NOSIG
Conditions at: GMTT (TANGIER/BOUKHALF, MA) observed 1630 UTC 19 January 2019
Temperature: 14.0°C (57°F)
Dewpoint: 11.0°C (52°F) [RH = 82%]
Pressure (altimeter): 30.06 inches Hg (1018.0 mb)
Winds: from the SSW (210 degrees) at 13 MPH (11 knots; 5.7 m/s)
Visibility: 5 miles ( 8 km)
Ceiling: 2000 feet AGL
Clouds: scattered clouds at 1600 feet AGL
broken clouds at 2000 feet AGL
broken clouds at 2600 feet AGL
Weather: no significant weather observed at this time

METAR text: GMTT 191600Z 21009KT 8000 SCT010 BKN015 BKN020 14/12 Q1018 NOSIG
Conditions at: GMTT (TANGIER/BOUKHALF, MA) observed 1600 UTC 19 January 2019
Temperature: 14.0°C (57°F)
Dewpoint: 12.0°C (54°F) [RH = 88%]
Pressure (altimeter): 30.06 inches Hg (1018.0 mb)
Winds: from the SSW (210 degrees) at 10 MPH (9 knots; 4.6 m/s)
Visibility: 5 miles ( 8 km)
Ceiling: 1500 feet AGL
Clouds: scattered clouds at 1000 feet AGL
broken clouds at 1500 feet AGL
broken clouds at 2000 feet AGL
Weather: no significant weather observed at this time

METAR text: GMTT 191530Z 21010KT 8000 SCT015 BKN020 BKN026 14/12 Q1018 RERA TEMPO 4000 -RA SCT010 BKN015 BKN016
Conditions at: GMTT (TANGIER/BOUKHALF, MA) observed 1530 UTC 19 January 2019
Temperature: 14.0°C (57°F)
Dewpoint: 12.0°C (54°F) [RH = 88%]
Pressure (altimeter): 30.06 inches Hg (1018.0 mb)
Winds: from the SSW (210 degrees) at 12 MPH (10 knots; 5.1 m/s)
Visibility: 5 miles ( 8 km)
Ceiling: 2000 feet AGL
Clouds: scattered clouds at 1500 feet AGL
broken clouds at 2000 feet AGL
broken clouds at 2600 feet AGL
Weather: no significant weather observed at this time

METAR text: GMTT 191500Z 21011KT 8000 SCT015 BKN020 BKN026 14/12 Q1019 RERA TEMPO 4000 -RA SCT010 BKN015 BKN016
Conditions at: GMTT (TANGIER/BOUKHALF, MA) observed 1500 UTC 19 January 2019
Temperature: 14.0°C (57°F)
Dewpoint: 12.0°C (54°F) [RH = 88%]
Pressure (altimeter): 30.09 inches Hg (1019.0 mb)
Winds: from the SSW (210 degrees) at 13 MPH (11 knots; 5.7 m/s)
Visibility: 5 miles ( 8 km)
Ceiling: 2000 feet AGL
Clouds: scattered clouds at 1500 feet AGL
broken clouds at 2000 feet AGL
broken clouds at 2600 feet AGL
Weather: no significant weather observed at this time

METAR text: GMTT 191430Z 21008KT 4000 -RA SCT010 BKN013 BKN020 14/12 Q1019 BECMG 8000 NSW
Conditions at: GMTT (TANGIER/BOUKHALF, MA) observed 1430 UTC 19 January 2019
Temperature: 14.0°C (57°F)
Dewpoint: 12.0°C (54°F) [RH = 88%]
Pressure (altimeter): 30.09 inches Hg (1019.0 mb)
Winds: from the SSW (210 degrees) at 9 MPH (8 knots; 4.1 m/s)
Visibility: 2.49 miles (4.01 km)
Ceiling: 1300 feet AGL
Clouds: scattered clouds at 1000 feet AGL
broken clouds at 1300 feet AGL
broken clouds at 2000 feet AGL
Weather: -RA  (light rain)

METAR text: GMTT 191400Z 22009KT 8000 SCT011 BKN018 BKN023 14/11 Q1019 NOSIG
Conditions at: GMTT (TANGIER/BOUKHALF, MA) observed 1400 UTC 19 January 2019
Temperature: 14.0°C (57°F)
Dewpoint: 11.0°C (52°F) [RH = 82%]
Pressure (altimeter): 30.09 inches Hg (1019.0 mb)
Winds: from the SW (220 degrees) at 10 MPH (9 knots; 4.6 m/s)
Visibility: 5 miles ( 8 km)
Ceiling: 1800 feet AGL
Clouds: scattered clouds at 1100 feet AGL
broken clouds at 1800 feet AGL
broken clouds at 2300 feet AGL
Weather: no significant weather observed at this time

METAR text: GMTT 191330Z 25010KT 8000 SCT013 BKN020 15/12 Q1019 NOSIG
Conditions at: GMTT (TANGIER/BOUKHALF, MA) observed 1330 UTC 19 January 2019
Temperature: 15.0°C (59°F)
Dewpoint: 12.0°C (54°F) [RH = 82%]
Pressure (altimeter): 30.09 inches Hg (1019.0 mb)
Winds: from the WSW (250 degrees) at 12 MPH (10 knots; 5.1 m/s)
Visibility: 5 miles ( 8 km)
Ceiling: 2000 feet AGL
Clouds: scattered clouds at 1300 feet AGL
broken clouds at 2000 feet AGL
Weather: no significant weather observed at this time

METAR text: GMTT 191300Z 23010KT 8000 SCT013 BKN020 15/12 Q1020 NOSIG
Conditions at: GMTT (TANGIER/BOUKHALF, MA) observed 1300 UTC 19 January 2019
Temperature: 15.0°C (59°F)
Dewpoint: 12.0°C (54°F) [RH = 82%]
Pressure (altimeter): 30.12 inches Hg (1020.0 mb)
Winds: from the SW (230 degrees) at 12 MPH (10 knots; 5.1 m/s)
Visibility: 5 miles ( 8 km)
Ceiling: 2000 feet AGL
Clouds: scattered clouds at 1300 feet AGL
broken clouds at 2000 feet AGL
Weather: no significant weather observed at this time

METAR text: GMTT 191230Z 22009KT 200V260 8000 SCT013 BKN020 15/12 Q1020 NOSIG
Conditions at: GMTT (TANGIER/BOUKHALF, MA) observed 1230 UTC 19 January 2019
Temperature: 15.0°C (59°F)
Dewpoint: 12.0°C (54°F) [RH = 82%]
Pressure (altimeter): 30.12 inches Hg (1020.0 mb)
Winds: from the SW (220 degrees) at 10 MPH (9 knots; 4.6 m/s)
Visibility: 5 miles ( 8 km)
Ceiling: 2000 feet AGL
Clouds: scattered clouds at 1300 feet AGL
broken clouds at 2000 feet AGL
Weather: no significant weather observed at this time

METAR text: GMTT 191200Z 21011KT 8000 SCT013 BKN020 14/12 Q1021 NOSIG
Conditions at: GMTT (TANGIER/BOUKHALF, MA) observed 1200 UTC 19 January 2019
Temperature: 14.0°C (57°F)
Dewpoint: 12.0°C (54°F) [RH = 88%]
Pressure (altimeter): 30.15 inches Hg (1021.0 mb)
Winds: from the SSW (210 degrees) at 13 MPH (11 knots; 5.7 m/s)
Visibility: 5 miles ( 8 km)
Ceiling: 2000 feet AGL
Clouds: scattered clouds at 1300 feet AGL
broken clouds at 2000 feet AGL
Weather: no significant weather observed at this time

Forecast for: GMTT (TANGIER/BOUKHALF, MA)
Text: TAF GMTT 202300Z 2100/2206 33006KT 9999 SCT040 BKN050
Forecast period: 0000 UTC 21 January 2019 to 0600 UTC 22 January 2019
Forecast type: FROM: standard forecast or significant change
Winds: from the NNW (330 degrees) at 7 MPH (6 knots; 3.1 m/s)
Visibility: 6 or more miles 10+ km)
Ceiling: 5000 feet AGL
Clouds: scattered clouds at 4000 feet AGL
broken clouds at 5000 feet AGL
Weather: no significant weather forecast for this period
Text: PROB30
Forecast period: 0500 to 0900 UTC 21 January 2019
Forecast type: TEMPORARY: The following changes expected for less than half the time period
Visibility: 2.49 miles (4.01 km)
Ceiling: unknown
Clouds: missing
Weather: RA  (moderate rain)
Text: TEMPO 2105/2109 4000 RA
Forecast period: 2300 UTC 21 January 2019 to 0500 UTC 22 January 2019
Forecast type: TEMPORARY: The following changes expected for less than half the time period
Visibility: 1.86 miles (2.99 km)
Ceiling: unknown
Clouds: missing
Weather: BR  (mist)